Huffton, South Dakota
Current Conditions -  °F | °C
As of 4:53 AM on Saturday 01 Nov 2014 (Local Time) from KABR Reporting Station
Clear Clear  
Wind Chill: 21°   Ceiling: Unl
Heat Index: 33°   Visibility: 10mi
Dew Point: 17°   Wind: 21mph
Humidity: 52%   Direction: 170°S
Pressure: 30.18"   Gusts: NA
Location:  45.6648°N, 98.0615°W
Report Text: KABR 010953Z AUTO 17018KT 10SM CLR 01/M08 A3018 RMK AO2 PK WND 16029/0858 SLP231 T00061083
Loading
Personal Weather Stations






























Interactive Weather Map
Tropical Storm Tracking
New forecast layout! Learn more

10-Day Weather Forecast

Advertisements
Track Severe Weather on mobile